»·PEaware :: N8146P KYKM-KYKM

N8146P :: KYKM-KYKM

FLIGHT INFORMATION

Flight Status: Arrived
Operator: Privately registered:
United States
More flights under this callsign
Pilot: John G. (29580)
Aircraft: CESSNA 172 SKYHAWK
(C172)
More flights by this aircraft type
Origin: KYKM Yakima Air Term/Mcallister
United States
Destination: KYKM Yakima Air Term/Mcallister
United States
More flights between these airports :: More routes between these airports
Route: +
File this flight plan on PilotEdge
Remarks: nffs
Altitude:
(Current/Filed)
7,500ft
Speed:
(Current/Filed)
0kts
Departed: 14-May-20 11:36 AM
Arrived: 14-May-20 12:49 PM
Distance/Time
Traveled:
4nm/1:13
Distance/Time
To Go:
Arrived

Flight Plot

Page will automatically refresh every two minutes.


Map Options




Map Legend


Flown Route
Filed Route
Departure Airport
Arrival Airport
Navaid (VOR, NDB)
Fix

Horizontal Profiles

Position Reports

Time Latitude Longitude Heading Altitude Ground
Speed
14-May-20 11:30 46.570564 -120.543513 89 1070ft 0kts
14-May-20 11:31 46.569921 -120.543365 180 1070ft 0kts
14-May-20 11:33 46.569070 -120.541025 114 1065ft 13kts
14-May-20 11:34 46.567215 -120.533540 110 1051ft 39kts
14-May-20 11:35 46.566436 -120.531515 181 1047ft 0kts
14-May-20 11:36 46.567351 -120.538575 291 1060ft 85kts
14-May-20 11:37 46.576201 -120.547905 118 2162ft 65kts
14-May-20 11:38 46.561286 -120.530247 144 3049ft 72kts
14-May-20 11:39 46.545495 -120.510853 134 3888ft 80kts
14-May-20 11:40 46.532269 -120.484124 121 4731ft 84kts
14-May-20 11:41 46.521125 -120.454312 115 5558ft 82kts
14-May-20 11:42 46.510225 -120.422241 121 6193ft 97kts
14-May-20 11:43 46.495878 -120.386096 120 6568ft 118kts
14-May-20 11:44 46.477621 -120.341455 121 5974ft 127kts
14-May-20 11:45 46.462449 -120.303800 121 5923ft 97kts
14-May-20 11:46 46.448939 -120.271120 121 5758ft 100kts
14-May-20 11:47 46.432200 -120.233529 128 5317ft 104kts
14-May-20 11:48 46.415002 -120.200713 126 5046ft 107kts
14-May-20 11:49 46.397965 -120.167786 126 4923ft 96kts
14-May-20 11:50 46.381094 -120.135073 126 4627ft 107kts
14-May-20 11:50 46.365090 -120.104510 128 3992ft 128kts
14-May-20 11:52 46.336900 -120.060366 132 2621ft 132kts
14-May-20 11:52 46.325771 -120.024583 87 1435ft 107kts
14-May-20 11:53 46.327184 -119.989147 88 950ft 81kts
14-May-20 11:54 46.326352 -119.968960 193 770ft 8kts
14-May-20 12:00 46.326321 -119.970026 178 770ft 0kts
14-May-20 12:01 46.326321 -119.970026 178 770ft 0kts
14-May-20 12:02 46.326321 -119.970026 178 770ft 0kts
14-May-20 12:03 46.326321 -119.970026 178 770ft 0kts
14-May-20 12:04 46.326321 -119.970026 178 770ft 0kts
14-May-20 12:05 46.326321 -119.970026 178 770ft 0kts
14-May-20 12:06 46.326321 -119.970026 178 770ft 0kts
14-May-20 12:28 46.558649 -120.497462 308 3643ft 95kts
14-May-20 12:29 46.569633 -120.487587 148 4437ft 96kts
14-May-20 12:30 46.541311 -120.464287 135 4609ft 120kts
14-May-20 12:31 46.526235 -120.427789 117 5217ft 113kts
14-May-20 12:32 46.511252 -120.387572 121 5691ft 112kts
14-May-20 12:33 46.491502 -120.345209 128 5509ft 121kts
14-May-20 12:34 46.491661 -120.336967 300 5635ft 97kts
14-May-20 12:35 46.509933 -120.374129 311 4741ft 123kts
14-May-20 12:36 46.534150 -120.411076 298 3295ft 116kts
14-May-20 12:37 46.550056 -120.444180 339 3453ft 87kts
14-May-20 12:38 46.552803 -120.419472 122 4330ft 87kts
14-May-20 12:39 46.538661 -120.386584 120 4865ft 114kts
14-May-20 12:40 46.522350 -120.343891 121 4945ft 125kts
14-May-20 12:41 46.502437 -120.312809 240 5358ft 108kts
14-May-20 12:42 46.510238 -120.355567 284 5676ft 115kts
14-May-20 12:43 46.523125 -120.406701 295 4933ft 145kts
14-May-20 12:48 46.570781 -120.543509 88 1070ft 0kts
14-May-20 12:49 46.570781 -120.543511 89 1070ft 0kts
14-May-20 12:50 46.570781 -120.543511 89 1070ft 0kts
14-May-20 12:51 46.570781 -120.543511 89 1070ft 0kts
14-May-20 12:52 46.570781 -120.543511 89 1070ft 0kts
14-May-20 12:53 46.570110 -120.543341 186 1070ft 11kts
14-May-20 12:54 46.567928 -120.536396 107 1056ft 22kts
14-May-20 12:55 46.566689 -120.531656 137 1047ft 16kts
14-May-20 12:56 46.566428 -120.531507 179 1047ft 0kts
14-May-20 12:57 46.566428 -120.531507 179 1047ft 0kts
14-May-20 12:58 46.567695 -120.551229 226 1646ft 64kts
14-May-20 12:59 46.554326 -120.540236 160 2561ft 61kts
14-May-20 13:00 46.539666 -120.526954 127 3383ft 69kts
14-May-20 13:01 46.527884 -120.502021 118 4207ft 77kts
14-May-20 13:02 46.518250 -120.475260 114 5074ft 69kts
14-May-20 13:03 46.516474 -120.470135 118 5244ft 68kts

Navigation Log

Ident Type
Flight plan parsing failed, navigation log unavailable